createdAt,value
2022-09-07T00:02:52.906Z,3.10
2022-09-07T00:06:20.051Z,3.40
2022-09-07T00:09:46.993Z,3.00
2022-09-07T00:13:13.802Z,3.30
2022-09-07T00:16:40.832Z,3.10
2022-09-07T00:20:12.001Z,2.90
2022-09-07T00:23:40.329Z,3.10
2022-09-07T00:27:07.956Z,3.20
2022-09-07T00:30:35.019Z,3.00
2022-09-07T00:34:03.562Z,3.00
2022-09-07T00:37:30.383Z,2.90
2022-09-07T00:40:57.493Z,3.50
2022-09-07T00:45:11.256Z,2.80
2022-09-07T00:48:41.437Z,3.20
2022-09-07T00:52:11.585Z,3.30
2022-09-07T00:55:41.153Z,3.30
2022-09-07T00:59:08.723Z,3.10
2022-09-07T01:02:35.903Z,2.80
2022-09-07T01:06:10.810Z,3.40
2022-09-07T01:09:39.284Z,2.80
2022-09-07T01:13:06.563Z,3.20
2022-09-07T01:16:50.059Z,2.90
2022-09-07T01:20:37.979Z,3.00
2022-09-07T01:24:24.643Z,3.30
2022-09-07T01:28:06.779Z,3.10
2022-09-07T01:31:42.925Z,3.00
2022-09-07T01:35:19.923Z,3.10
2022-09-07T01:38:52.340Z,3.30
2022-09-07T01:42:22.029Z,4.00
2022-09-07T01:45:50.218Z,2.70
2022-09-07T01:49:21.821Z,2.90
2022-09-07T01:52:54.458Z,3.30
2022-09-07T01:56:30.177Z,3.10
2022-09-07T02:00:06.193Z,3.40
2022-09-07T02:03:44.153Z,3.00
2022-09-07T02:07:16.334Z,3.70
2022-09-07T02:10:46.719Z,3.20
2022-09-07T02:14:19.723Z,3.50
2022-09-07T02:17:50.926Z,3.00
2022-09-07T02:21:21.032Z,3.40
2022-09-07T02:24:53.220Z,3.40
2022-09-07T02:28:24.875Z,3.30
2022-09-07T02:31:52.152Z,2.90
2022-09-07T02:35:19.575Z,3.50
2022-09-07T02:38:46.633Z,3.80
2022-09-07T02:42:13.275Z,3.20
2022-09-07T02:46:19.708Z,3.00
2022-09-07T02:50:03.570Z,3.40
2022-09-07T02:53:58.106Z,3.30
2022-09-07T02:57:37.665Z,3.30
2022-09-07T03:01:15.368Z,3.40
2022-09-07T03:04:48.587Z,3.40
2022-09-07T03:08:21.327Z,3.40
2022-09-07T03:11:48.738Z,3.20
2022-09-07T03:15:18.018Z,3.60
2022-09-07T03:18:45.387Z,3.00
2022-09-07T03:22:12.109Z,3.20
2022-09-07T03:25:39.059Z,3.20
2022-09-07T03:29:06.476Z,3.20
2022-09-07T03:32:35.933Z,3.60
2022-09-07T03:36:03.909Z,3.20
2022-09-07T03:39:31.335Z,3.90
2022-09-07T03:42:58.859Z,3.50
2022-09-07T03:46:25.569Z,3.20
2022-09-07T03:49:52.401Z,3.20
2022-09-07T03:53:19.354Z,2.80
2022-09-07T03:56:46.127Z,3.60
2022-09-07T04:00:16.196Z,3.60
2022-09-07T04:03:44.275Z,3.30
2022-09-07T04:07:11.082Z,4.00
2022-09-07T04:10:41.240Z,3.30
2022-09-07T04:14:08.645Z,4.00
2022-09-07T04:17:35.796Z,3.80
2022-09-07T04:21:02.586Z,3.60
2022-09-07T04:24:30.048Z,3.30
2022-09-07T04:27:58.315Z,3.50
2022-09-07T04:31:25.620Z,3.50
2022-09-07T04:34:54.455Z,3.70
2022-09-07T04:38:21.704Z,3.50
2022-09-07T04:41:48.390Z,3.60
2022-09-07T04:45:15.743Z,3.50
2022-09-07T04:48:42.450Z,4.10
2022-09-07T04:52:09.720Z,3.60
2022-09-07T04:55:36.527Z,3.50
2022-09-07T04:59:04.667Z,3.70
2022-09-07T05:02:31.704Z,4.20
2022-09-07T05:06:01.375Z,3.90
2022-09-07T05:09:28.722Z,3.40
2022-09-07T05:12:55.364Z,4.30
2022-09-07T05:16:24.388Z,3.70
2022-09-07T05:19:51.885Z,3.80
2022-09-07T05:23:19.062Z,3.50
2022-09-07T05:26:46.188Z,3.30
2022-09-07T05:37:53.664Z,4.20
2022-09-07T05:41:22.079Z,3.50
2022-09-07T05:44:49.067Z,3.90
2022-09-07T05:48:16.550Z,3.70
2022-09-07T05:51:43.250Z,3.90
2022-09-07T05:55:28.909Z,4.00
2022-09-07T05:58:57.011Z,3.10
2022-09-07T06:02:23.821Z,3.70
2022-09-07T06:05:50.844Z,3.40
2022-09-07T06:09:17.504Z,3.70
2022-09-07T06:12:49.208Z,3.60
2022-09-07T06:16:18.564Z,3.40
2022-09-07T06:19:45.553Z,3.70
2022-09-07T06:23:12.684Z,4.20
2022-09-07T06:26:39.420Z,4.10
2022-09-07T06:30:08.725Z,3.60
2022-09-07T06:33:35.731Z,4.00
2022-09-07T06:37:02.541Z,3.70
2022-09-07T06:40:29.557Z,4.10
2022-09-07T06:43:58.275Z,3.70
2022-09-07T06:47:25.666Z,3.70
2022-09-07T06:51:01.736Z,3.80
2022-09-07T06:58:15.750Z,3.50
2022-09-07T07:01:42.704Z,3.50
2022-09-07T07:05:10.942Z,3.90
2022-09-07T07:08:38.091Z,3.60
2022-09-07T07:12:05.816Z,3.90
2022-09-07T07:15:33.144Z,3.60
2022-09-07T07:19:00.358Z,3.60
2022-09-07T07:22:46.067Z,4.10
2022-09-07T07:26:16.279Z,4.10
2022-09-07T07:29:43.257Z,3.60
2022-09-07T07:33:10.052Z,3.20
2022-09-07T07:36:36.859Z,3.80
2022-09-07T07:40:23.495Z,3.90
2022-09-07T07:43:57.114Z,3.70
2022-09-07T07:47:23.820Z,3.80
2022-09-07T07:51:02.647Z,4.10
2022-09-07T07:54:31.030Z,3.80
2022-09-07T07:57:57.595Z,3.60
2022-09-07T08:01:24.253Z,3.50
2022-09-07T08:04:51.539Z,3.40
2022-09-07T08:08:18.192Z,3.00
2022-09-07T08:11:44.894Z,3.90
2022-09-07T08:15:12.710Z,3.60
2022-09-07T08:18:40.491Z,3.70
2022-09-07T08:22:07.942Z,3.50
2022-09-07T08:25:34.753Z,3.40
2022-09-07T08:29:01.470Z,3.30
2022-09-07T08:32:30.233Z,3.70
2022-09-07T08:36:02.925Z,3.70
2022-09-07T08:39:30.033Z,2.80
2022-09-07T08:43:13.692Z,3.30
2022-09-07T08:46:45.796Z,3.30
2022-09-07T08:50:19.424Z,3.20
2022-09-07T08:53:48.171Z,3.40
2022-09-07T08:57:29.103Z,3.40
2022-09-07T09:08:41.643Z,3.50
2022-09-07T09:12:22.951Z,3.20
2022-09-07T09:15:59.495Z,3.30
2022-09-07T09:19:53.554Z,3.60
2022-09-07T09:23:24.574Z,2.60
2022-09-07T09:26:55.659Z,3.60
2022-09-07T09:30:25.253Z,3.00
2022-09-07T09:37:39.482Z,3.00
2022-09-07T09:41:10.984Z,2.50
2022-09-07T09:44:38.942Z,2.80
2022-09-07T09:48:12.651Z,2.70
2022-09-07T09:55:36.588Z,2.30
2022-09-07T10:07:18.484Z,2.90
2022-09-07T10:10:57.852Z,2.80
2022-09-07T10:17:54.827Z,3.50
2022-09-07T10:21:28.027Z,2.60
2022-09-07T10:24:54.584Z,2.40
2022-09-07T10:28:24.233Z,2.60
2022-09-07T10:32:20.849Z,2.60
2022-09-07T10:35:54.829Z,2.30
2022-09-07T10:39:27.206Z,2.40
2022-09-07T10:46:58.057Z,2.80
2022-09-07T10:50:33.502Z,3.00
2022-09-07T10:58:10.530Z,3.00
2022-09-07T11:01:53.001Z,2.40
2022-09-07T11:05:33.628Z,2.30
2022-09-07T11:09:17.900Z,2.70
2022-09-07T11:12:47.597Z,2.30
2022-09-07T11:20:15.420Z,2.60
2022-09-07T11:23:46.098Z,2.60
2022-09-07T11:27:19.808Z,2.70
2022-09-07T11:30:50.583Z,3.30
2022-09-07T11:34:24.415Z,2.20
2022-09-07T11:37:59.666Z,2.40
2022-09-07T11:41:30.676Z,2.20
2022-09-07T11:45:02.613Z,3.00
2022-09-07T11:48:36.541Z,2.30
2022-09-07T11:52:08.826Z,2.60
2022-09-07T11:55:39.551Z,2.00
2022-09-07T11:59:26.596Z,2.60
2022-09-07T12:03:31.959Z,3.20
2022-09-07T12:07:35.169Z,2.70
2022-09-07T12:11:20.188Z,2.40
2022-09-07T12:15:04.717Z,2.50
2022-09-07T12:18:55.128Z,2.80
2022-09-07T12:22:24.158Z,1.90
2022-09-07T12:25:52.631Z,2.20
2022-09-07T12:29:25.620Z,2.20
2022-09-07T12:33:20.002Z,2.40
2022-09-07T12:36:51.992Z,2.50
2022-09-07T12:40:45.255Z,2.90
2022-09-07T12:44:24.987Z,2.20
2022-09-07T12:48:04.552Z,2.10
2022-09-07T12:59:56.115Z,2.80
2022-09-07T13:03:51.721Z,2.30
2022-09-07T13:07:47.707Z,2.50
2022-09-07T13:11:34.580Z,2.40
2022-09-07T13:15:02.298Z,2.60
2022-09-07T13:18:47.659Z,2.50
2022-09-07T13:22:42.026Z,3.40
2022-09-07T13:26:13.265Z,2.80
2022-09-07T13:29:48.468Z,2.30
2022-09-07T13:33:48.146Z,2.80
2022-09-07T13:37:22.875Z,2.50
2022-09-07T13:40:52.180Z,2.60
2022-09-07T13:44:26.489Z,2.70
2022-09-07T13:48:03.303Z,2.50
2022-09-07T13:51:35.724Z,2.60
2022-09-07T13:55:22.706Z,2.50
2022-09-07T13:58:54.474Z,2.50
2022-09-07T14:02:28.284Z,2.20
2022-09-07T14:06:31.666Z,2.70
2022-09-07T14:10:14.697Z,2.60
2022-09-07T14:13:41.360Z,2.40
2022-09-07T14:17:13.575Z,2.80
2022-09-07T14:20:53.306Z,2.10
2022-09-07T14:24:29.570Z,2.70
2022-09-07T14:27:57.839Z,2.60
2022-09-07T14:31:26.247Z,2.10
2022-09-07T14:34:53.554Z,2.60
2022-09-07T14:42:17.579Z,2.30
2022-09-07T14:45:44.184Z,2.60
2022-09-07T14:49:23.078Z,2.80
2022-09-07T14:56:41.876Z,2.80
2022-09-07T15:00:33.030Z,2.10
2022-09-07T15:04:01.938Z,2.10
2022-09-07T15:07:39.068Z,2.60
2022-09-07T15:14:55.644Z,2.50
2022-09-07T15:18:56.544Z,2.50
2022-09-07T15:22:23.459Z,2.10
2022-09-07T15:25:54.189Z,2.30
2022-09-07T15:29:23.126Z,2.40
2022-09-07T15:32:51.042Z,2.40
2022-09-07T15:36:20.492Z,2.40
2022-09-07T15:43:20.319Z,2.60
2022-09-07T15:50:36.108Z,1.70
2022-09-07T15:54:18.461Z,2.20
2022-09-07T15:57:50.187Z,2.10
2022-09-07T16:05:08.130Z,2.20
2022-09-07T16:08:34.745Z,2.60
2022-09-07T16:15:50.337Z,2.00
2022-09-07T16:19:20.505Z,1.90
2022-09-07T16:26:34.030Z,2.30
2022-09-07T16:30:00.885Z,2.30
2022-09-07T16:33:36.094Z,2.30
2022-09-07T16:37:03.683Z,1.70
2022-09-07T16:40:31.171Z,2.30
2022-09-07T16:43:58.693Z,2.10
2022-09-07T16:47:25.620Z,2.10
2022-09-07T16:51:01.671Z,2.10
2022-09-07T16:54:29.457Z,2.40
2022-09-07T17:01:43.081Z,2.00
2022-09-07T17:05:11.202Z,1.70
2022-09-07T17:08:39.457Z,2.80
2022-09-07T17:12:07.857Z,2.40
2022-09-07T17:15:36.594Z,2.70
2022-09-07T17:22:52.051Z,2.90
2022-09-07T17:26:20.536Z,2.90
2022-09-07T17:29:47.124Z,2.50
2022-09-07T17:33:13.951Z,2.70
2022-09-07T17:36:42.604Z,2.80
2022-09-07T17:40:11.620Z,2.40
2022-09-07T17:43:39.526Z,2.20
2022-09-07T17:47:10.575Z,2.40
2022-09-07T17:50:37.391Z,2.40
2022-09-07T17:54:13.169Z,2.80
2022-09-07T17:57:40.054Z,2.90
2022-09-07T18:01:08.109Z,2.60
2022-09-07T18:04:35.862Z,2.80
2022-09-07T18:08:02.883Z,3.30
2022-09-07T18:11:46.626Z,4.20
2022-09-07T18:15:14.637Z,3.30
2022-09-07T18:18:42.108Z,4.40
2022-09-07T18:22:09.381Z,3.00
2022-09-07T18:25:36.538Z,2.70
2022-09-07T18:29:04.299Z,2.90
2022-09-07T18:32:31.894Z,2.90
2022-09-07T18:35:59.021Z,2.80
2022-09-07T18:39:26.678Z,3.10
2022-09-07T18:42:53.312Z,3.10
2022-09-07T18:46:22.222Z,3.30
2022-09-07T18:49:49.076Z,2.80
2022-09-07T18:53:16.929Z,3.50
2022-09-07T18:56:44.972Z,3.20
2022-09-07T19:00:15.156Z,3.50
2022-09-07T19:03:42.941Z,2.90
2022-09-07T19:07:10.725Z,2.80
2022-09-07T19:10:38.781Z,3.10
2022-09-07T19:14:06.128Z,2.80
2022-09-07T19:17:34.089Z,3.00
2022-09-07T19:21:05.497Z,3.10
2022-09-07T19:24:33.332Z,3.30
2022-09-07T19:28:00.160Z,2.80
2022-09-07T19:31:28.021Z,2.80
2022-09-07T19:34:55.975Z,3.00
2022-09-07T19:38:22.666Z,2.60
2022-09-07T19:41:49.296Z,2.90
2022-09-07T19:45:16.477Z,3.20
2022-09-07T19:48:43.666Z,2.90
2022-09-07T19:52:10.379Z,2.90
2022-09-07T19:55:37.099Z,3.80
2022-09-07T19:59:03.907Z,3.70
2022-09-07T20:02:30.628Z,3.30
2022-09-07T20:05:57.854Z,3.40
2022-09-07T20:09:25.271Z,3.90
2022-09-07T20:12:51.948Z,3.40
2022-09-07T20:16:20.388Z,3.50
2022-09-07T20:19:46.905Z,3.60
2022-09-07T20:23:13.374Z,3.40
2022-09-07T20:26:39.960Z,3.30
2022-09-07T20:30:09.114Z,3.50
2022-09-07T20:33:36.200Z,3.70
2022-09-07T20:37:02.864Z,3.90
2022-09-07T20:40:29.896Z,4.10
2022-09-07T20:43:57.139Z,3.80
2022-09-07T20:47:24.052Z,3.30
2022-09-07T20:50:58.444Z,3.60
2022-09-07T20:54:25.335Z,3.80
2022-09-07T20:57:54.196Z,3.40
2022-09-07T21:01:21.532Z,4.10
2022-09-07T21:04:49.071Z,4.50
2022-09-07T21:08:16.639Z,4.20
2022-09-07T21:11:48.572Z,4.20
2022-09-07T21:15:16.013Z,4.30
2022-09-07T21:18:44.048Z,3.80
2022-09-07T21:22:11.122Z,3.50
2022-09-07T21:25:42.904Z,3.80
2022-09-07T21:29:14.891Z,5.10
2022-09-07T21:32:42.098Z,4.20
2022-09-07T21:36:11.977Z,4.50
2022-09-07T21:43:04.049Z,5.00
2022-09-07T21:46:32.593Z,4.40
2022-09-07T21:49:59.463Z,4.90
2022-09-07T21:53:26.479Z,4.80
2022-09-07T21:56:54.443Z,5.00
2022-09-07T22:00:22.765Z,4.10
2022-09-07T22:03:54.679Z,3.90
2022-09-07T22:07:21.400Z,4.60
2022-09-07T22:10:48.678Z,4.00
2022-09-07T22:14:16.498Z,3.80
2022-09-07T22:17:46.348Z,4.70
2022-09-07T22:24:39.507Z,4.10
2022-09-07T22:28:06.671Z,4.50
2022-09-07T22:31:34.771Z,4.80
2022-09-07T22:35:01.944Z,4.40
2022-09-07T22:38:31.177Z,5.40
2022-09-07T22:41:58.286Z,4.80
2022-09-07T22:45:24.880Z,5.10
2022-09-07T22:48:53.979Z,4.60
2022-09-07T22:52:21.434Z,4.40
2022-09-07T22:55:48.457Z,5.40
2022-09-07T22:59:15.219Z,4.50
2022-09-07T23:02:42.036Z,4.70
2022-09-07T23:06:08.958Z,4.70
2022-09-07T23:09:36.196Z,4.10
2022-09-07T23:13:03.633Z,4.70
2022-09-07T23:16:30.852Z,4.90
2022-09-07T23:19:58.114Z,5.50
2022-09-07T23:23:25.203Z,4.50
2022-09-07T23:26:52.052Z,4.90
2022-09-07T23:30:19.066Z,4.80
2022-09-07T23:33:45.814Z,4.50
2022-09-07T23:37:13.052Z,5.20
2022-09-07T23:40:39.956Z,4.00
2022-09-07T23:44:07.077Z,4.80
2022-09-07T23:47:34.342Z,4.50
2022-09-07T23:51:01.119Z,4.90
2022-09-07T23:54:28.385Z,4.70
2022-09-07T23:57:54.920Z,4.40
